createdAt,value
2023-02-28T00:00:42.698Z,3.90
2023-02-28T00:05:54.628Z,3.90
2023-02-28T00:10:57.991Z,3.90
2023-02-28T00:16:04.865Z,3.90
2023-02-28T00:21:09.022Z,4.00
2023-02-28T00:26:12.760Z,4.00
2023-02-28T00:31:17.634Z,3.90
2023-02-28T00:36:21.014Z,3.90
2023-02-28T00:41:24.404Z,4.00
2023-02-28T00:46:31.725Z,4.00
2023-02-28T00:51:35.180Z,4.00
2023-02-28T00:56:38.580Z,4.00
2023-02-28T01:01:43.810Z,4.00
2023-02-28T01:06:47.904Z,4.00
2023-02-28T01:11:53.438Z,4.00
2023-02-28T01:16:58.204Z,4.00
2023-02-28T01:22:03.723Z,4.00
2023-02-28T01:27:07.135Z,4.00
2023-02-28T01:32:12.478Z,3.90
2023-02-28T01:37:15.901Z,3.90
2023-02-28T01:42:19.321Z,3.80
2023-02-28T01:47:25.157Z,3.90
2023-02-28T01:52:29.687Z,3.80
2023-02-28T01:57:38.779Z,3.80
2023-02-28T02:02:45.229Z,3.70
2023-02-28T02:07:53.032Z,3.80
2023-02-28T02:13:19.436Z,3.70
2023-02-28T02:18:32.404Z,3.70
2023-02-28T02:24:07.133Z,3.80
2023-02-28T02:29:58.310Z,3.70
2023-02-28T02:35:14.862Z,3.70
2023-02-28T02:40:22.424Z,3.70
2023-02-28T02:45:36.789Z,3.60
2023-02-28T02:50:45.839Z,3.70
2023-02-28T02:55:55.411Z,3.70
2023-02-28T03:01:02.125Z,3.70
2023-02-28T03:06:07.950Z,3.70
2023-02-28T03:11:17.067Z,3.80
2023-02-28T03:16:39.818Z,3.80
2023-02-28T03:21:50.505Z,3.70
2023-02-28T03:27:01.637Z,3.70
2023-02-28T03:32:12.433Z,3.60
2023-02-28T03:37:22.092Z,3.70
2023-02-28T03:42:29.714Z,3.60
2023-02-28T03:47:39.698Z,3.60
2023-02-28T03:52:50.517Z,3.60
2023-02-28T03:58:02.467Z,3.60
2023-02-28T04:03:06.660Z,3.60
2023-02-28T04:08:11.446Z,3.60
2023-02-28T04:13:14.885Z,3.60
2023-02-28T04:18:18.256Z,3.60
2023-02-28T04:23:23.058Z,3.50
2023-02-28T04:28:26.677Z,3.50
2023-02-28T04:33:30.722Z,3.50
2023-02-28T04:38:37.698Z,3.50
2023-02-28T04:43:41.161Z,3.60
2023-02-28T04:48:45.374Z,3.60
2023-02-28T04:53:50.781Z,3.60
2023-02-28T04:58:54.256Z,3.60
2023-02-28T05:03:59.963Z,3.60
2023-02-28T05:09:04.836Z,3.50
2023-02-28T05:14:12.478Z,3.50
2023-02-28T05:19:15.961Z,3.60
2023-02-28T05:24:23.757Z,3.50
2023-02-28T05:29:27.503Z,3.50
2023-02-28T05:34:30.917Z,3.40
2023-02-28T05:39:35.744Z,3.40
2023-02-28T05:44:39.206Z,3.40
2023-02-28T05:49:42.657Z,3.40
2023-02-28T05:54:48.736Z,3.40
2023-02-28T05:59:52.140Z,3.50
2023-02-28T06:04:55.578Z,3.50
2023-02-28T06:10:00.338Z,3.60
2023-02-28T06:15:04.714Z,3.60
2023-02-28T06:20:10.318Z,3.60
2023-02-28T06:25:15.091Z,3.60
2023-02-28T06:30:18.952Z,3.60
2023-02-28T06:35:22.678Z,3.70
2023-02-28T06:40:27.728Z,3.70
2023-02-28T06:45:31.516Z,3.80
2023-02-28T06:50:35.221Z,3.80
2023-02-28T06:55:41.953Z,3.90
2023-02-28T07:00:46.260Z,3.90
2023-02-28T07:05:49.754Z,3.90
2023-02-28T07:10:55.643Z,3.90
2023-02-28T07:16:02.016Z,3.90
2023-02-28T07:21:06.207Z,3.90
2023-02-28T07:26:15.787Z,3.90
2023-02-28T07:31:20.314Z,4.00
2023-02-28T07:36:23.724Z,4.00
2023-02-28T07:41:28.928Z,4.00
2023-02-28T07:46:36.665Z,4.00
2023-02-28T07:51:40.762Z,4.10
2023-02-28T07:56:45.577Z,4.10
2023-02-28T08:01:51.319Z,4.10
2023-02-28T08:06:55.065Z,4.10
2023-02-28T08:12:01.730Z,4.10
2023-02-28T08:17:06.457Z,4.10
2023-02-28T08:22:09.884Z,4.20
2023-02-28T08:27:29.741Z,4.20
2023-02-28T08:32:34.904Z,4.20
2023-02-28T08:37:38.579Z,4.20
2023-02-28T08:42:43.368Z,4.30
2023-02-28T08:47:46.744Z,4.30
2023-02-28T08:52:50.407Z,4.30
2023-02-28T08:57:55.945Z,4.40
2023-02-28T09:02:59.692Z,4.40
2023-02-28T09:08:04.426Z,4.40
2023-02-28T09:13:10.079Z,4.40
2023-02-28T09:18:14.196Z,4.40
2023-02-28T09:23:17.656Z,4.50
2023-02-28T09:28:23.802Z,4.50
2023-02-28T09:33:28.520Z,4.50
2023-02-28T09:38:32.226Z,4.60
2023-02-28T09:43:42.059Z,4.70
2023-02-28T09:48:49.891Z,4.70
2023-02-28T09:53:56.734Z,4.80
2023-02-28T09:59:13.452Z,4.80
2023-02-28T10:04:29.975Z,4.90
2023-02-28T10:09:35.798Z,5.00
2023-02-28T10:14:43.523Z,4.90
2023-02-28T10:19:54.992Z,5.00
2023-02-28T10:25:05.076Z,5.10
2023-02-28T10:30:15.256Z,5.20
2023-02-28T10:35:20.743Z,5.30
2023-02-28T10:40:32.548Z,5.40
2023-02-28T10:45:38.281Z,5.50
2023-02-28T10:50:52.457Z,5.50
2023-02-28T10:56:01.936Z,5.70
2023-02-28T11:01:07.335Z,5.80
2023-02-28T11:06:17.635Z,5.80
2023-02-28T11:11:22.846Z,5.80
2023-02-28T11:16:36.607Z,5.90
2023-02-28T11:21:41.752Z,6.00
2023-02-28T11:26:47.876Z,6.10
2023-02-28T11:32:14.311Z,6.20
2023-02-28T11:37:19.964Z,6.30
2023-02-28T11:42:39.413Z,6.40
2023-02-28T11:47:50.645Z,6.60
2023-02-28T11:52:55.950Z,6.80
2023-02-28T11:58:17.321Z,6.90
2023-02-28T12:03:31.903Z,7.00
2023-02-28T12:08:51.813Z,7.10
2023-02-28T12:14:18.212Z,7.10
2023-02-28T12:19:27.850Z,7.10
2023-02-28T12:24:55.356Z,7.10
2023-02-28T12:30:03.461Z,7.30
2023-02-28T12:35:15.655Z,7.50
2023-02-28T12:40:23.213Z,7.60
2023-02-28T12:45:32.307Z,7.60
2023-02-28T12:50:37.839Z,7.70
2023-02-28T12:55:48.553Z,7.90
2023-02-28T13:01:12.079Z,8.00
2023-02-28T13:06:30.998Z,8.10
2023-02-28T13:11:40.056Z,8.20
2023-02-28T13:16:59.671Z,8.20
2023-02-28T13:22:05.190Z,8.30
2023-02-28T13:27:35.509Z,8.40
2023-02-28T13:32:43.837Z,8.50
2023-02-28T13:37:52.771Z,8.60
2023-02-28T13:42:56.268Z,8.70
2023-02-28T13:48:05.528Z,8.80
2023-02-28T13:53:39.981Z,8.80
2023-02-28T13:58:55.599Z,8.90
2023-02-28T14:04:24.789Z,8.90
2023-02-28T14:09:33.236Z,9.00
2023-02-28T14:14:56.407Z,9.00
2023-02-28T14:20:01.221Z,9.20
2023-02-28T14:25:18.412Z,9.20
2023-02-28T14:30:52.751Z,9.20
2023-02-28T14:36:02.602Z,9.10
2023-02-28T14:41:18.328Z,9.20
2023-02-28T14:46:23.040Z,9.30
2023-02-28T14:51:27.560Z,9.30
2023-02-28T14:56:37.184Z,9.20
2023-02-28T15:01:40.659Z,9.10
2023-02-28T15:06:44.182Z,8.90
2023-02-28T15:11:51.801Z,8.80
2023-02-28T15:17:01.138Z,8.70
2023-02-28T15:22:09.613Z,8.50
2023-02-28T15:27:18.032Z,8.40
2023-02-28T15:32:28.328Z,8.30
2023-02-28T15:37:43.372Z,8.10
2023-02-28T15:43:06.027Z,8.10
2023-02-28T15:48:18.678Z,8.00
2023-02-28T15:53:25.214Z,8.00
2023-02-28T15:58:30.652Z,7.90
2023-02-28T16:03:47.001Z,7.80
2023-02-28T16:08:52.398Z,7.70
2023-02-28T16:13:57.545Z,7.60
2023-02-28T16:19:00.979Z,7.60
2023-02-28T16:24:04.484Z,7.40
2023-02-28T16:29:13.385Z,7.30
2023-02-28T16:34:16.816Z,7.10
2023-02-28T16:39:21.741Z,7.00
2023-02-28T16:44:30.403Z,6.90
2023-02-28T16:49:33.907Z,6.80
2023-02-28T16:54:37.495Z,6.70
2023-02-28T16:59:42.504Z,6.60
2023-02-28T17:04:46.920Z,6.50
2023-02-28T17:09:50.327Z,6.40
2023-02-28T17:14:55.389Z,6.30
2023-02-28T17:19:58.859Z,6.20
2023-02-28T17:25:02.232Z,6.10
2023-02-28T17:30:17.506Z,6.00
2023-02-28T17:35:21.370Z,5.70
2023-02-28T17:40:25.958Z,5.60
2023-02-28T17:45:30.740Z,5.50
2023-02-28T17:50:35.053Z,5.40
2023-02-28T17:55:38.925Z,5.30
2023-02-28T18:00:43.646Z,5.20
2023-02-28T18:05:47.097Z,5.10
2023-02-28T18:10:50.547Z,5.00
2023-02-28T18:15:55.403Z,4.90
2023-02-28T18:20:58.864Z,4.90
2023-02-28T18:26:02.351Z,4.80
2023-02-28T18:31:11.262Z,4.70
2023-02-28T18:36:14.801Z,4.70
2023-02-28T18:41:21.588Z,4.50
2023-02-28T18:46:26.462Z,4.40
2023-02-28T18:51:31.705Z,4.40
2023-02-28T18:56:35.153Z,4.30
2023-02-28T19:01:40.979Z,4.20
2023-02-28T19:06:44.434Z,4.10
2023-02-28T19:11:47.873Z,4.10
2023-02-28T19:16:53.032Z,4.00
2023-02-28T19:21:56.511Z,4.00
2023-02-28T19:26:59.960Z,3.90
2023-02-28T19:32:04.971Z,3.80
2023-02-28T19:37:08.631Z,3.80
2023-02-28T19:42:14.009Z,3.70
2023-02-28T19:47:18.938Z,3.70
2023-02-28T19:52:22.620Z,3.60
2023-02-28T19:57:26.313Z,3.50
2023-02-28T20:02:31.088Z,3.60
2023-02-28T20:07:34.862Z,3.60
2023-02-28T20:12:38.309Z,3.40
2023-02-28T20:17:43.234Z,3.40
2023-02-28T20:22:46.995Z,3.30
2023-02-28T20:27:50.375Z,3.30
2023-02-28T20:32:55.150Z,3.30
2023-02-28T20:37:58.874Z,3.30
2023-02-28T20:43:02.491Z,3.30
2023-02-28T20:48:07.372Z,3.20
2023-02-28T20:53:10.811Z,3.20
2023-02-28T20:58:14.208Z,3.20
2023-02-28T21:03:19.003Z,3.20
2023-02-28T21:08:22.411Z,3.30
2023-02-28T21:13:26.764Z,3.30
2023-02-28T21:18:31.535Z,3.20
2023-02-28T21:23:35.094Z,3.00
2023-02-28T21:28:44.387Z,3.00
2023-02-28T21:33:49.995Z,3.00
2023-02-28T21:38:57.605Z,3.00
2023-02-28T21:44:01.288Z,3.00
2023-02-28T21:49:06.154Z,3.10
2023-02-28T21:54:10.902Z,3.10
2023-02-28T21:59:14.415Z,3.10
2023-02-28T22:04:22.486Z,3.20
2023-02-28T22:09:26.415Z,3.20
2023-02-28T22:14:29.934Z,3.30
2023-02-28T22:19:36.091Z,3.30
2023-02-28T22:24:41.065Z,3.40
2023-02-28T22:29:44.474Z,3.40
2023-02-28T22:34:51.635Z,3.30
2023-02-28T22:39:55.011Z,3.30
2023-02-28T22:44:58.347Z,3.20
2023-02-28T22:50:03.097Z,3.20
2023-02-28T22:55:07.765Z,3.10
2023-02-28T23:00:15.486Z,3.10
2023-02-28T23:05:20.468Z,3.10
2023-02-28T23:10:23.913Z,3.10
2023-02-28T23:15:27.535Z,3.00
2023-02-28T23:20:32.321Z,2.90
2023-02-28T23:25:43.522Z,2.80
2023-02-28T23:30:46.905Z,2.80
2023-02-28T23:35:51.970Z,2.70
2023-02-28T23:40:55.708Z,2.70
2023-02-28T23:45:59.314Z,2.70
2023-02-28T23:51:08.620Z,2.70
2023-02-28T23:56:14.769Z,2.80
